createdAt,value
2022-09-01T00:00:15.100Z,101816.75
2022-09-01T00:02:43.195Z,101818.34
2022-09-01T00:05:10.326Z,101818.22
2022-09-01T00:07:37.048Z,101816.47
2022-09-01T00:10:08.699Z,101817.50
2022-09-01T00:12:38.238Z,101819.34
2022-09-01T00:15:10.509Z,101822.63
2022-09-01T00:17:37.566Z,101817.94
2022-09-01T00:20:07.413Z,101820.78
2022-09-01T00:22:34.222Z,101819.66
2022-09-01T00:25:02.089Z,101811.56
2022-09-01T00:27:30.945Z,101819.41
2022-09-01T00:29:59.359Z,101813.03
2022-09-01T00:32:28.226Z,101813.03
2022-09-01T00:34:55.325Z,101813.88
2022-09-01T00:37:22.167Z,101807.75
2022-09-01T00:39:48.901Z,101808.59
2022-09-01T00:42:15.574Z,101811.28
2022-09-01T00:44:42.277Z,101805.03
2022-09-01T00:47:10.146Z,101808.47
2022-09-01T00:49:45.260Z,101805.03
2022-09-01T00:52:51.747Z,101802.84
2022-09-01T00:55:29.244Z,101802.41
2022-09-01T00:57:59.944Z,101806.69
2022-09-01T01:00:32.697Z,101798.44
2022-09-01T01:02:59.661Z,101799.41
2022-09-01T01:05:34.783Z,101798.44
2022-09-01T01:08:04.333Z,101803.13
2022-09-01T01:10:37.961Z,101802.28
2022-09-01T01:13:15.316Z,101799.69
2022-09-01T01:15:43.930Z,101797.97
2022-09-01T01:18:14.484Z,101793.28
2022-09-01T01:21:02.399Z,101796.88
2022-09-01T01:23:53.426Z,101796.53
2022-09-01T01:26:20.206Z,101797.19
2022-09-01T01:28:46.874Z,101796.59
2022-09-01T01:31:22.951Z,101790.19
2022-09-01T01:33:56.867Z,101795.31
2022-09-01T01:36:36.247Z,101794.47
2022-09-01T01:39:14.089Z,101789.81
2022-09-01T01:41:48.662Z,101784.78
2022-09-01T01:44:24.504Z,101784.19
2022-09-01T01:46:54.740Z,101779.78
2022-09-01T01:49:31.031Z,101788.28
2022-09-01T01:51:58.164Z,101791.84
2022-09-01T01:54:29.586Z,101783.88
2022-09-01T01:56:57.964Z,101780.06
2022-09-01T01:59:26.507Z,101774.50
2022-09-01T02:01:53.896Z,101778.94
2022-09-01T02:04:21.346Z,101790.59
2022-09-01T02:06:52.031Z,101789.88
2022-09-01T02:09:23.164Z,101781.63
2022-09-01T02:11:54.234Z,101786.97
2022-09-01T02:14:21.736Z,101787.31
2022-09-01T02:16:48.508Z,101784.94
2022-09-01T02:19:20.965Z,101787.25
2022-09-01T02:21:54.063Z,101789.56
2022-09-01T02:24:22.203Z,101782.91
2022-09-01T02:26:49.072Z,101776.59
2022-09-01T02:29:22.621Z,101780.75
2022-09-01T02:31:53.625Z,101786.03
2022-09-01T02:34:24.079Z,101783.03
2022-09-01T02:36:57.285Z,101783.94
2022-09-01T02:39:33.498Z,101779.22
2022-09-01T02:42:01.877Z,101778.59
2022-09-01T02:44:31.049Z,101778.72
2022-09-01T02:46:58.819Z,101773.31
2022-09-01T02:49:29.805Z,101779.59
2022-09-01T02:52:01.486Z,101776.03
2022-09-01T02:54:32.493Z,101768.06
2022-09-01T02:57:00.218Z,101770.03
2022-09-01T02:59:30.422Z,101772.13
2022-09-01T03:01:58.467Z,101769.72
2022-09-01T03:04:27.278Z,101772.53
2022-09-01T03:06:54.824Z,101776.34
2022-09-01T03:09:22.745Z,101770.97
2022-09-01T03:11:54.614Z,101768.78
2022-09-01T03:14:24.380Z,101767.06
2022-09-01T03:16:51.407Z,101771.34
2022-09-01T03:19:19.143Z,101776.34
2022-09-01T03:21:48.729Z,101769.72
2022-09-01T03:24:19.013Z,101772.88
2022-09-01T03:26:50.419Z,101772.88
2022-09-01T03:29:19.152Z,101773.72
2022-09-01T03:31:46.621Z,101779.00
2022-09-01T03:34:16.466Z,101778.28
2022-09-01T03:36:50.308Z,101779.28
2022-09-01T03:39:19.730Z,101772.41
2022-09-01T03:41:47.095Z,101777.94
2022-09-01T03:44:16.455Z,101780.91
2022-09-01T03:46:44.300Z,101776.47
2022-09-01T03:49:15.649Z,101780.78
2022-09-01T03:51:45.285Z,101781.47
2022-09-01T03:54:13.561Z,101781.75
2022-09-01T03:56:41.689Z,101783.28
2022-09-01T03:59:10.358Z,101786.09
2022-09-01T04:01:41.042Z,101780.13
2022-09-01T04:04:07.842Z,101778.38
2022-09-01T04:06:37.421Z,101784.41
2022-09-01T04:09:04.413Z,101784.78
2022-09-01T04:11:32.304Z,101791.41
2022-09-01T04:14:01.754Z,101785.69
2022-09-01T04:16:53.932Z,101791.94
2022-09-01T04:19:26.476Z,101784.56
2022-09-01T04:22:01.568Z,101776.13
2022-09-01T04:24:34.864Z,101787.03
2022-09-01T04:27:04.012Z,101786.34
2022-09-01T04:29:32.825Z,101787.56
2022-09-01T04:32:12.993Z,101784.88
2022-09-01T04:34:41.734Z,101790.78
2022-09-01T04:37:18.829Z,101786.09
2022-09-01T04:39:57.090Z,101798.09
2022-09-01T04:42:29.281Z,101788.31
2022-09-01T04:44:57.709Z,101792.59
2022-09-01T04:47:36.075Z,101791.59
2022-09-01T04:50:13.847Z,101793.56
2022-09-01T04:52:43.821Z,101791.00
2022-09-01T04:55:18.372Z,101788.03
2022-09-01T04:57:50.032Z,101792.59
2022-09-01T05:00:24.536Z,101790.34
2022-09-01T05:03:04.808Z,101785.19
2022-09-01T05:05:44.959Z,101786.47
2022-09-01T05:08:24.178Z,101783.88
2022-09-01T05:10:56.784Z,101781.38
2022-09-01T05:13:24.460Z,101787.31
2022-09-01T05:16:07.538Z,101790.53
2022-09-01T05:18:34.395Z,101783.06
2022-09-01T05:21:11.400Z,101781.00
2022-09-01T05:23:40.501Z,101779.78
2022-09-01T05:26:18.061Z,101777.28
2022-09-01T05:28:54.002Z,101789.06
2022-09-01T05:31:24.046Z,101782.88
2022-09-01T05:33:51.737Z,101780.47
2022-09-01T05:36:23.484Z,101796.59
2022-09-01T05:38:52.349Z,101784.47
2022-09-01T05:41:21.088Z,101794.19
2022-09-01T05:43:57.758Z,101786.47
2022-09-01T05:46:28.438Z,101792.16
2022-09-01T05:48:57.550Z,101793.13
2022-09-01T05:51:50.879Z,101792.81
2022-09-01T05:54:27.258Z,101788.56
2022-09-01T05:57:13.112Z,101789.94
2022-09-01T05:59:53.776Z,101790.78
2022-09-01T06:02:26.387Z,101793.53
2022-09-01T06:04:56.935Z,101795.19
2022-09-01T06:07:26.706Z,101794.41
2022-09-01T06:09:53.758Z,101795.41
2022-09-01T06:12:23.317Z,101795.50
2022-09-01T06:14:54.437Z,101789.94
2022-09-01T06:17:26.679Z,101803.13
2022-09-01T06:19:57.665Z,101797.34
2022-09-01T06:22:28.636Z,101794.97
2022-09-01T06:25:01.761Z,101799.00
2022-09-01T06:27:29.596Z,101805.06
2022-09-01T06:29:58.173Z,101809.94
2022-09-01T06:32:26.929Z,101815.38
2022-09-01T06:34:53.770Z,101810.97
2022-09-01T06:37:22.727Z,101818.59
2022-09-01T06:39:50.865Z,101819.56
2022-09-01T06:42:19.365Z,101823.69
2022-09-01T06:44:46.388Z,101818.16
2022-09-01T06:47:15.794Z,101812.38
2022-09-01T06:49:42.988Z,101822.53
2022-09-01T06:52:11.660Z,101823.44
2022-09-01T06:54:39.587Z,101820.72
2022-09-01T06:59:54.387Z,101825.66
2022-09-01T07:02:26.712Z,101830.59
2022-09-01T07:04:54.880Z,101829.63
2022-09-01T07:10:25.644Z,101830.69
2022-09-01T07:13:11.938Z,101825.25
2022-09-01T07:18:31.919Z,101830.28
2022-09-01T07:21:06.950Z,101823.47
2022-09-01T07:24:10.362Z,101825.78
2022-09-01T07:26:26.470Z,101829.00
2022-09-01T07:29:01.103Z,101832.94
2022-09-01T07:32:48.098Z,101841.06
2022-09-01T07:34:41.681Z,101841.75
2022-09-01T07:45:30.903Z,101840.94
2022-09-01T07:48:06.330Z,101833.75
2022-09-01T07:51:34.770Z,101840.09
2022-09-01T07:53:33.294Z,101842.03
2022-09-01T07:56:11.150Z,101848.16
2022-09-01T07:58:41.885Z,101842.88
2022-09-01T08:01:13.746Z,101846.00
2022-09-01T08:03:41.690Z,101844.78
2022-09-01T08:06:14.130Z,101843.44
2022-09-01T08:08:41.801Z,101840.28
2022-09-01T08:11:09.420Z,101844.13
2022-09-01T08:13:41.737Z,101840.38
2022-09-01T08:16:18.429Z,101840.41
2022-09-01T08:18:48.783Z,101840.75
2022-09-01T08:21:22.205Z,101847.66
2022-09-01T08:23:53.442Z,101843.59
2022-09-01T08:26:26.255Z,101846.41
2022-09-01T08:28:55.530Z,101842.16
2022-09-01T08:31:25.881Z,101844.00
2022-09-01T08:33:55.938Z,101846.41
2022-09-01T08:36:24.764Z,101843.91
2022-09-01T08:38:53.635Z,101840.81
2022-09-01T08:41:47.092Z,101844.63
2022-09-01T08:44:26.269Z,101850.16
2022-09-01T08:47:08.550Z,101850.22
2022-09-01T08:49:49.151Z,101852.22
2022-09-01T08:52:33.201Z,101846.09
2022-09-01T08:55:27.283Z,101845.09
2022-09-01T08:57:59.782Z,101856.38
2022-09-01T09:00:37.013Z,101854.28
2022-09-01T09:03:40.910Z,101866.16
2022-09-01T09:06:53.490Z,101859.91
2022-09-01T09:09:32.283Z,101860.72
2022-09-01T09:12:51.446Z,101860.59
2022-09-01T09:16:07.499Z,101863.22
2022-09-01T09:18:57.516Z,101864.25
2022-09-01T09:21:33.473Z,101863.63
2022-09-01T09:24:22.652Z,101859.19
2022-09-01T09:26:58.971Z,101861.25
2022-09-01T09:29:27.251Z,101858.50
2022-09-01T09:34:59.543Z,101861.50
2022-09-01T09:37:31.707Z,101860.38
2022-09-01T09:40:17.364Z,101856.16
2022-09-01T09:42:54.198Z,101857.34
2022-09-01T09:45:41.651Z,101861.59
2022-09-01T09:48:32.749Z,101858.72
2022-09-01T09:51:22.703Z,101852.78
2022-09-01T09:53:49.825Z,101854.19
2022-09-01T09:56:24.219Z,101855.53
2022-09-01T09:58:53.434Z,101859.31
2022-09-01T10:01:26.122Z,101853.13
2022-09-01T10:04:00.045Z,101838.06
2022-09-01T10:06:46.845Z,101845.72
2022-09-01T10:09:38.505Z,101846.56
2022-09-01T10:12:06.996Z,101843.72
2022-09-01T10:15:05.483Z,101845.25
2022-09-01T10:17:44.091Z,101838.72
2022-09-01T10:20:21.228Z,101845.56
2022-09-01T10:22:50.851Z,101840.66
2022-09-01T10:25:29.185Z,101836.50
2022-09-01T10:28:11.080Z,101848.81
2022-09-01T10:30:45.858Z,101838.91
2022-09-01T10:33:20.872Z,101833.00
2022-09-01T10:35:53.924Z,101848.88
2022-09-01T10:38:29.533Z,101848.16
2022-09-01T10:41:14.290Z,101840.53
2022-09-01T10:43:51.624Z,101845.53
2022-09-01T10:46:38.806Z,101845.56
2022-09-01T10:49:28.117Z,101836.13
2022-09-01T10:52:03.245Z,101836.69
2022-09-01T10:54:45.232Z,101838.72
2022-09-01T10:57:48.152Z,101827.53
2022-09-01T11:00:39.405Z,101835.97
2022-09-01T11:06:12.605Z,101834.75
2022-09-01T11:08:48.242Z,101833.69
2022-09-01T11:12:51.686Z,101835.09
2022-09-01T11:15:18.262Z,101835.44
2022-09-01T11:17:52.622Z,101835.38
2022-09-01T11:20:36.475Z,101835.66
2022-09-01T11:23:30.628Z,101834.09
2022-09-01T11:26:32.617Z,101830.84
2022-09-01T11:28:59.543Z,101826.34
2022-09-01T11:31:38.851Z,101825.94
2022-09-01T11:34:15.239Z,101832.50
2022-09-01T11:36:52.639Z,101832.88
2022-09-01T11:39:20.853Z,101823.59
2022-09-01T11:42:07.735Z,101824.19
2022-09-01T11:45:15.501Z,101829.88
2022-09-01T11:48:17.929Z,101823.00
2022-09-01T11:50:44.923Z,101832.94
2022-09-01T11:53:24.033Z,101824.84
2022-09-01T11:55:56.961Z,101819.53
2022-09-01T11:58:30.786Z,101823.25
2022-09-01T12:01:18.772Z,101820.34
2022-09-01T12:03:51.111Z,101814.91
2022-09-01T12:06:29.593Z,101814.28
2022-09-01T12:09:03.831Z,101817.13
2022-09-01T12:11:36.192Z,101811.25
2022-09-01T12:14:11.562Z,101817.47
2022-09-01T12:16:42.339Z,101809.38
2022-09-01T12:19:30.998Z,101809.06
2022-09-01T12:22:16.807Z,101798.53
2022-09-01T12:24:54.899Z,101800.53
2022-09-01T12:27:25.465Z,101797.72
2022-09-01T12:29:52.796Z,101795.03
2022-09-01T12:32:20.639Z,101798.78
2022-09-01T12:35:31.246Z,101803.59
2022-09-01T12:38:20.015Z,101800.13
2022-09-01T12:40:55.162Z,101803.09
2022-09-01T12:43:41.978Z,101797.56
2022-09-01T12:46:10.873Z,101799.69
2022-09-01T12:48:41.725Z,101789.47
2022-09-01T12:51:29.486Z,101794.38
2022-09-01T12:54:04.791Z,101787.91
2022-09-01T12:56:39.207Z,101785.00
2022-09-01T12:59:36.193Z,101779.94
2022-09-01T13:02:45.595Z,101782.56
2022-09-01T13:05:42.490Z,101778.25
2022-09-01T13:08:18.367Z,101777.16
2022-09-01T13:10:52.097Z,101779.91
2022-09-01T13:13:20.713Z,101779.34
2022-09-01T13:15:55.136Z,101788.25
2022-09-01T13:18:25.671Z,101783.50
2022-09-01T13:20:56.286Z,101785.09
2022-09-01T13:23:24.329Z,101777.16
2022-09-01T13:25:51.809Z,101780.28
2022-09-01T13:36:44.189Z,101786.59
2022-09-01T13:39:11.411Z,101775.94
2022-09-01T13:41:38.261Z,101780.66
2022-09-01T13:44:05.034Z,101777.94
2022-09-01T13:46:31.760Z,101773.84
2022-09-01T13:49:42.023Z,101786.56
2022-09-01T13:51:53.883Z,101780.50
2022-09-01T13:54:21.603Z,101781.38
2022-09-01T13:56:48.390Z,101778.78
2022-09-01T13:59:15.126Z,101774.78
2022-09-01T14:01:42.855Z,101776.44
2022-09-01T14:04:10.359Z,101772.09
2022-09-01T14:06:44.233Z,101772.25
2022-09-01T14:09:17.459Z,101766.34
2022-09-01T14:11:44.964Z,101767.47
2022-09-01T14:14:12.025Z,101765.03
2022-09-01T14:16:38.799Z,101760.72
2022-09-01T14:19:11.028Z,101763.44
2022-09-01T14:21:40.846Z,101766.59
2022-09-01T14:24:08.350Z,101758.72
2022-09-01T14:26:35.367Z,101759.13
2022-09-01T14:29:02.627Z,101750.81
2022-09-01T14:31:30.218Z,101746.69
2022-09-01T14:33:57.019Z,101740.97
2022-09-01T14:36:27.006Z,101745.19
2022-09-01T14:38:54.243Z,101744.56
2022-09-01T14:41:26.850Z,101745.38
2022-09-01T14:44:03.006Z,101734.81
2022-09-01T14:46:34.325Z,101741.59
2022-09-01T14:49:05.864Z,101735.25
2022-09-01T14:54:19.607Z,101733.34
2022-09-01T14:59:35.705Z,101734.63
2022-09-01T15:02:02.814Z,101728.75
2022-09-01T15:04:32.336Z,101723.59
2022-09-01T15:06:59.971Z,101722.84
2022-09-01T15:09:26.616Z,101723.97
2022-09-01T15:11:53.320Z,101719.22
2022-09-01T15:14:20.072Z,101722.72
2022-09-01T15:16:47.144Z,101711.91
2022-09-01T15:19:14.806Z,101719.94
2022-09-01T15:21:46.415Z,101716.84
2022-09-01T15:24:14.186Z,101703.47
2022-09-01T15:26:44.487Z,101695.28
2022-09-01T15:29:13.156Z,101698.28
2022-09-01T15:31:42.897Z,101689.78
2022-09-01T15:34:12.968Z,101690.16
2022-09-01T15:36:41.984Z,101691.59
2022-09-01T15:39:10.550Z,101691.00
2022-09-01T15:41:38.686Z,101690.16
2022-09-01T15:44:08.327Z,101689.94
2022-09-01T15:46:38.919Z,101692.44
2022-09-01T15:49:10.406Z,101687.88
2022-09-01T15:51:43.981Z,101684.31
2022-09-01T15:54:20.628Z,101689.38
2022-09-01T15:56:47.920Z,101671.19
2022-09-01T15:59:15.540Z,101677.91
2022-09-01T16:01:46.859Z,101671.25
2022-09-01T16:04:19.278Z,101664.34
2022-09-01T16:06:49.444Z,101668.41
2022-09-01T16:09:26.916Z,101659.78
2022-09-01T16:11:54.872Z,101660.00
2022-09-01T16:14:23.417Z,101661.78
2022-09-01T16:17:11.757Z,101662.88
2022-09-01T16:20:10.935Z,101649.41
2022-09-01T16:23:14.546Z,101653.63
2022-09-01T16:25:45.759Z,101653.47
2022-09-01T16:28:32.050Z,101648.53
2022-09-01T16:31:14.894Z,101661.91
2022-09-01T16:34:18.259Z,101652.66
2022-09-01T16:37:10.074Z,101655.63
2022-09-01T16:40:44.415Z,101647.72
2022-09-01T16:44:26.717Z,101645.53
2022-09-01T16:47:54.380Z,101645.69
2022-09-01T16:51:13.576Z,101653.66
2022-09-01T16:54:13.236Z,101647.56
2022-09-01T16:57:23.507Z,101640.50
2022-09-01T17:00:03.455Z,101640.38
2022-09-01T17:03:07.950Z,101630.06
2022-09-01T17:05:56.283Z,101637.84
2022-09-01T17:08:34.240Z,101637.72
2022-09-01T17:11:21.575Z,101637.53
2022-09-01T17:13:52.141Z,101643.63
2022-09-01T17:16:37.215Z,101643.53
2022-09-01T17:19:14.767Z,101647.66
2022-09-01T17:22:03.731Z,101640.72
2022-09-01T17:24:43.268Z,101651.00
2022-09-01T17:27:20.047Z,101644.25
2022-09-01T17:29:52.078Z,101645.13
2022-09-01T17:33:23.143Z,101650.50
2022-09-01T17:36:24.003Z,101646.13
2022-09-01T17:39:29.415Z,101641.53
2022-09-01T17:42:38.423Z,101648.41
2022-09-01T17:45:29.241Z,101648.03
2022-09-01T17:48:20.662Z,101647.88
2022-09-01T17:51:39.693Z,101652.34
2022-09-01T17:54:31.401Z,101645.53
2022-09-01T17:57:28.803Z,101640.25
2022-09-01T18:00:52.621Z,101644.34
2022-09-01T18:04:15.280Z,101644.03
2022-09-01T18:06:58.059Z,101643.84
2022-09-01T18:09:28.552Z,101638.06
2022-09-01T18:12:09.807Z,101646.41
2022-09-01T18:14:55.126Z,101647.41
2022-09-01T18:17:42.576Z,101647.41
2022-09-01T18:20:48.544Z,101649.44
2022-09-01T18:23:19.921Z,101654.47
2022-09-01T18:25:57.677Z,101649.22
2022-09-01T18:28:24.627Z,101656.03
2022-09-01T18:31:24.118Z,101654.66
2022-09-01T18:34:27.891Z,101659.50
2022-09-01T18:37:16.047Z,101658.91
2022-09-01T18:40:16.333Z,101662.38
2022-09-01T18:43:22.814Z,101663.25
2022-09-01T18:46:02.668Z,101661.81
2022-09-01T18:49:06.459Z,101665.69
2022-09-01T18:52:09.832Z,101663.06
2022-09-01T18:55:17.452Z,101667.22
2022-09-01T18:57:55.248Z,101665.28
2022-09-01T19:00:41.326Z,101665.84
2022-09-01T19:03:41.604Z,101668.59
2022-09-01T19:06:26.281Z,101661.59
2022-09-01T19:09:33.414Z,101668.78
2022-09-01T19:12:22.491Z,101672.91
2022-09-01T19:15:46.139Z,101661.78
2022-09-01T19:18:51.198Z,101659.38
2022-09-01T19:21:33.587Z,101663.66
2022-09-01T19:24:20.711Z,101660.38
2022-09-01T19:26:56.883Z,101658.69
2022-09-01T19:29:52.528Z,101664.94
2022-09-01T19:32:25.768Z,101664.34
2022-09-01T19:35:11.744Z,101662.34
2022-09-01T19:37:40.958Z,101661.22
2022-09-01T19:40:11.574Z,101662.94
2022-09-01T19:42:56.384Z,101662.94
2022-09-01T19:45:41.130Z,101662.78
2022-09-01T19:48:22.653Z,101664.50
2022-09-01T19:51:13.683Z,101656.38
2022-09-01T19:54:11.282Z,101653.91
2022-09-01T19:56:54.638Z,101659.47
2022-09-01T19:59:48.621Z,101659.22
2022-09-01T20:02:43.601Z,101654.31
2022-09-01T20:05:55.563Z,101659.31
2022-09-01T20:08:56.508Z,101660.75
2022-09-01T20:12:04.391Z,101658.72
2022-09-01T20:14:58.220Z,101659.13
2022-09-01T20:17:46.258Z,101663.09
2022-09-01T20:20:22.236Z,101659.69
2022-09-01T20:23:08.092Z,101656.41
2022-09-01T20:26:23.916Z,101654.97
2022-09-01T20:29:09.944Z,101647.00
2022-09-01T20:31:46.205Z,101646.56
2022-09-01T20:34:46.979Z,101648.81
2022-09-01T20:38:27.534Z,101646.38
2022-09-01T20:41:02.768Z,101644.41
2022-09-01T20:43:40.838Z,101643.41
2022-09-01T20:46:08.186Z,101649.56
2022-09-01T20:48:41.563Z,101648.28
2022-09-01T20:51:45.752Z,101644.16
2022-09-01T20:54:24.169Z,101647.97
2022-09-01T20:57:09.929Z,101646.56
2022-09-01T20:59:56.479Z,101640.28
2022-09-01T21:02:46.389Z,101640.66
2022-09-01T21:05:38.233Z,101655.16
2022-09-01T21:08:38.693Z,101647.09
2022-09-01T21:11:39.276Z,101649.63
2022-09-01T21:14:43.777Z,101647.81
2022-09-01T21:17:26.231Z,101643.25
2022-09-01T21:20:26.614Z,101643.44
2022-09-01T21:22:55.800Z,101653.97
2022-09-01T21:25:23.302Z,101653.53
2022-09-01T21:27:57.939Z,101650.34
2022-09-01T21:30:29.903Z,101656.56
2022-09-01T21:32:57.045Z,101649.88
2022-09-01T21:35:24.581Z,101659.31
2022-09-01T21:37:53.041Z,101655.63
2022-09-01T21:40:25.263Z,101661.97
2022-09-01T21:42:56.371Z,101660.84
2022-09-01T21:45:24.470Z,101659.84
2022-09-01T21:47:53.847Z,101656.91
2022-09-01T21:50:25.013Z,101655.34
2022-09-01T21:52:52.395Z,101651.66
2022-09-01T21:55:23.158Z,101657.66
2022-09-01T21:57:51.972Z,101654.53
2022-09-01T22:00:28.958Z,101659.38
2022-09-01T22:02:59.320Z,101656.19
2022-09-01T22:05:28.812Z,101658.16
2022-09-01T22:07:58.304Z,101659.00
2022-09-01T22:10:30.211Z,101661.41
2022-09-01T22:13:03.350Z,101659.25
2022-09-01T22:15:31.524Z,101665.19
2022-09-01T22:17:58.241Z,101664.03
2022-09-01T22:20:28.451Z,101659.34
2022-09-01T22:23:01.701Z,101659.03
2022-09-01T22:25:32.557Z,101660.28
2022-09-01T22:28:05.832Z,101656.00
2022-09-01T22:30:33.968Z,101659.13
2022-09-01T22:33:02.556Z,101654.84
2022-09-01T22:35:29.457Z,101647.88
2022-09-01T22:37:56.115Z,101650.56
2022-09-01T22:40:22.926Z,101660.38
2022-09-01T22:42:51.814Z,101662.66
2022-09-01T22:45:18.683Z,101653.31
2022-09-01T22:47:45.429Z,101652.91
2022-09-01T22:50:12.798Z,101656.75
2022-09-01T22:52:40.042Z,101652.91
2022-09-01T22:55:09.466Z,101651.94
2022-09-01T22:57:36.905Z,101646.13
2022-09-01T23:00:10.482Z,101640.00
2022-09-01T23:02:38.255Z,101636.47
2022-09-01T23:05:07.002Z,101635.56
2022-09-01T23:07:37.695Z,101647.09
2022-09-01T23:10:09.355Z,101639.44
2022-09-01T23:12:36.269Z,101637.72
2022-09-01T23:15:03.369Z,101638.44
2022-09-01T23:17:30.263Z,101645.00
2022-09-01T23:20:01.453Z,101641.72
2022-09-01T23:22:28.687Z,101637.31
2022-09-01T23:24:55.362Z,101632.84
2022-09-01T23:27:22.209Z,101631.69
2022-09-01T23:29:49.232Z,101632.69
2022-09-01T23:32:16.015Z,101634.22
2022-09-01T23:34:42.691Z,101630.22
2022-09-01T23:37:09.588Z,101630.66
2022-09-01T23:39:36.406Z,101626.66
2022-09-01T23:42:03.391Z,101633.34
2022-09-01T23:44:30.165Z,101632.44
2022-09-01T23:46:56.814Z,101621.94
2022-09-01T23:49:23.508Z,101621.25
2022-09-01T23:51:54.390Z,101621.63
2022-09-01T23:54:21.928Z,101622.06
2022-09-01T23:56:48.809Z,101621.75
2022-09-01T23:59:15.980Z,101624.75
